sensor_id;sensor_type;location;lat;lon;timestamp;P1;durP1;ratioP1;P2;durP2;ratioP2
38717;SDS011;24468;52.128;9.278;2023-09-12T00:00:55;12.23;;;7.28;;
38717;SDS011;24468;52.128;9.278;2023-09-12T00:03:21;12.45;;;8.40;;
38717;SDS011;24468;52.128;9.278;2023-09-12T00:05:55;10.43;;;6.53;;
38717;SDS011;24468;52.128;9.278;2023-09-12T00:08:22;8.65;;;6.50;;
38717;SDS011;24468;52.128;9.278;2023-09-12T00:11:07;12.13;;;7.72;;
38717;SDS011;24468;52.128;9.278;2023-09-12T00:13:36;13.85;;;7.45;;
38717;SDS011;24468;52.128;9.278;2023-09-12T00:16:04;9.23;;;7.43;;
38717;SDS011;24468;52.128;9.278;2023-09-12T00:18:30;13.77;;;8.18;;
38717;SDS011;24468;52.128;9.278;2023-09-12T00:20:56;17.42;;;8.18;;
38717;SDS011;24468;52.128;9.278;2023-09-12T00:23:24;14.70;;;7.78;;
38717;SDS011;24468;52.128;9.278;2023-09-12T00:25:50;10.10;;;7.43;;
38717;SDS011;24468;52.128;9.278;2023-09-12T00:28:16;9.57;;;7.68;;
38717;SDS011;24468;52.128;9.278;2023-09-12T00:30:43;15.73;;;9.35;;
38717;SDS011;24468;52.128;9.278;2023-09-12T00:33:08;11.90;;;7.65;;
38717;SDS011;24468;52.128;9.278;2023-09-12T00:35:34;12.60;;;7.25;;
38717;SDS011;24468;52.128;9.278;2023-09-12T00:37:59;17.40;;;8.35;;
38717;SDS011;24468;52.128;9.278;2023-09-12T00:40:25;10.88;;;7.22;;
38717;SDS011;24468;52.128;9.278;2023-09-12T00:42:50;13.18;;;7.22;;
38717;SDS011;24468;52.128;9.278;2023-09-12T00:45:16;14.20;;;8.00;;
38717;SDS011;24468;52.128;9.278;2023-09-12T00:47:42;14.45;;;8.75;;
38717;SDS011;24468;52.128;9.278;2023-09-12T00:50:08;10.88;;;8.40;;
38717;SDS011;24468;52.128;9.278;2023-09-12T00:52:34;10.07;;;7.85;;
38717;SDS011;24468;52.128;9.278;2023-09-12T00:55:03;9.60;;;6.57;;
38717;SDS011;24468;52.128;9.278;2023-09-12T00:57:30;9.48;;;6.45;;
38717;SDS011;24468;52.128;9.278;2023-09-12T00:59:57;10.57;;;6.50;;
38717;SDS011;24468;52.128;9.278;2023-09-12T01:02:23;10.60;;;7.97;;
38717;SDS011;24468;52.128;9.278;2023-09-12T01:04:50;9.68;;;7.15;;
38717;SDS011;24468;52.128;9.278;2023-09-12T01:07:16;14.85;;;8.45;;
38717;SDS011;24468;52.128;9.278;2023-09-12T01:09:42;11.02;;;7.97;;
38717;SDS011;24468;52.128;9.278;2023-09-12T01:12:08;11.02;;;6.82;;
38717;SDS011;24468;52.128;9.278;2023-09-12T01:14:33;8.32;;;7.38;;
38717;SDS011;24468;52.128;9.278;2023-09-12T01:16:59;11.10;;;6.75;;
38717;SDS011;24468;52.128;9.278;2023-09-12T01:19:27;12.73;;;7.82;;
38717;SDS011;24468;52.128;9.278;2023-09-12T01:27:46;13.38;;;9.07;;
38717;SDS011;24468;52.128;9.278;2023-09-12T01:30:16;10.82;;;8.20;;
38717;SDS011;24468;52.128;9.278;2023-09-12T01:32:45;8.60;;;7.28;;
38717;SDS011;24468;52.128;9.278;2023-09-12T01:35:12;9.15;;;7.88;;
38717;SDS011;24468;52.128;9.278;2023-09-12T01:37:37;11.80;;;7.57;;
38717;SDS011;24468;52.128;9.278;2023-09-12T01:40:03;11.13;;;7.90;;
38717;SDS011;24468;52.128;9.278;2023-09-12T01:42:30;8.73;;;7.43;;
38717;SDS011;24468;52.128;9.278;2023-09-12T01:47:27;9.80;;;7.63;;
38717;SDS011;24468;52.128;9.278;2023-09-12T01:49:56;11.13;;;8.18;;
38717;SDS011;24468;52.128;9.278;2023-09-12T01:52:24;13.07;;;8.15;;
38717;SDS011;24468;52.128;9.278;2023-09-12T01:54:51;8.80;;;7.45;;
38717;SDS011;24468;52.128;9.278;2023-09-12T01:57:18;16.13;;;9.25;;
38717;SDS011;24468;52.128;9.278;2023-09-12T01:59:47;11.88;;;8.85;;
38717;SDS011;24468;52.128;9.278;2023-09-12T02:02:17;7.90;;;6.78;;
38717;SDS011;24468;52.128;9.278;2023-09-12T02:05:05;9.95;;;8.32;;
38717;SDS011;24468;52.128;9.278;2023-09-12T02:07:40;11.50;;;7.80;;
38717;SDS011;24468;52.128;9.278;2023-09-12T02:10:07;12.10;;;9.60;;
38717;SDS011;24468;52.128;9.278;2023-09-12T02:12:34;12.85;;;10.35;;
38717;SDS011;24468;52.128;9.278;2023-09-12T02:15:00;15.90;;;10.55;;
38717;SDS011;24468;52.128;9.278;2023-09-12T02:17:25;15.52;;;11.63;;
38717;SDS011;24468;52.128;9.278;2023-09-12T02:19:51;17.00;;;10.18;;
38717;SDS011;24468;52.128;9.278;2023-09-12T02:22:16;15.75;;;9.57;;
38717;SDS011;24468;52.128;9.278;2023-09-12T02:24:42;11.82;;;9.55;;
38717;SDS011;24468;52.128;9.278;2023-09-12T02:27:07;11.30;;;8.90;;
38717;SDS011;24468;52.128;9.278;2023-09-12T02:29:34;14.65;;;8.73;;
38717;SDS011;24468;52.128;9.278;2023-09-12T02:31:59;12.10;;;8.98;;
38717;SDS011;24468;52.128;9.278;2023-09-12T02:34:25;8.68;;;7.35;;
38717;SDS011;24468;52.128;9.278;2023-09-12T02:36:51;10.85;;;7.97;;
38717;SDS011;24468;52.128;9.278;2023-09-12T02:39:16;10.80;;;8.80;;
38717;SDS011;24468;52.128;9.278;2023-09-12T02:41:42;13.27;;;6.25;;
38717;SDS011;24468;52.128;9.278;2023-09-12T02:44:07;9.88;;;7.85;;
38717;SDS011;24468;52.128;9.278;2023-09-12T02:46:33;10.02;;;7.15;;
38717;SDS011;24468;52.128;9.278;2023-09-12T02:48:59;13.10;;;6.50;;
38717;SDS011;24468;52.128;9.278;2023-09-12T02:51:25;10.93;;;7.40;;
38717;SDS011;24468;52.128;9.278;2023-09-12T02:53:51;11.25;;;6.32;;
38717;SDS011;24468;52.128;9.278;2023-09-12T02:56:17;10.88;;;6.85;;
38717;SDS011;24468;52.128;9.278;2023-09-12T02:58:45;10.30;;;7.32;;
38717;SDS011;24468;52.128;9.278;2023-09-12T03:01:20;8.70;;;6.38;;
38717;SDS011;24468;52.128;9.278;2023-09-12T03:03:46;11.00;;;8.02;;
38717;SDS011;24468;52.128;9.278;2023-09-12T03:06:13;8.80;;;7.10;;
38717;SDS011;24468;52.128;9.278;2023-09-12T03:08:43;10.98;;;5.63;;
38717;SDS011;24468;52.128;9.278;2023-09-12T03:11:09;12.27;;;6.15;;
38717;SDS011;24468;52.128;9.278;2023-09-12T03:13:41;7.45;;;6.60;;
38717;SDS011;24468;52.128;9.278;2023-09-12T03:18:36;9.70;;;6.63;;
38717;SDS011;24468;52.128;9.278;2023-09-12T03:21:02;8.13;;;6.40;;
38717;SDS011;24468;52.128;9.278;2023-09-12T03:23:28;10.52;;;6.82;;
38717;SDS011;24468;52.128;9.278;2023-09-12T03:25:53;6.53;;;5.55;;
38717;SDS011;24468;52.128;9.278;2023-09-12T03:28:19;10.70;;;6.25;;
38717;SDS011;24468;52.128;9.278;2023-09-12T03:30:44;8.52;;;7.53;;
38717;SDS011;24468;52.128;9.278;2023-09-12T03:33:10;12.70;;;9.60;;
38717;SDS011;24468;52.128;9.278;2023-09-12T03:35:36;12.48;;;11.00;;
38717;SDS011;24468;52.128;9.278;2023-09-12T03:38:01;17.80;;;12.32;;
38717;SDS011;24468;52.128;9.278;2023-09-12T03:40:31;14.60;;;13.10;;
38717;SDS011;24468;52.128;9.278;2023-09-12T03:42:57;17.08;;;14.73;;
38717;SDS011;24468;52.128;9.278;2023-09-12T03:45:23;13.60;;;12.20;;
38717;SDS011;24468;52.128;9.278;2023-09-12T03:47:49;11.57;;;10.07;;
38717;SDS011;24468;52.128;9.278;2023-09-12T03:50:15;9.90;;;8.90;;
38717;SDS011;24468;52.128;9.278;2023-09-12T03:52:41;6.22;;;5.28;;
38717;SDS011;24468;52.128;9.278;2023-09-12T03:55:07;10.02;;;7.07;;
38717;SDS011;24468;52.128;9.278;2023-09-12T03:57:33;14.15;;;10.40;;
38717;SDS011;24468;52.128;9.278;2023-09-12T03:59:58;11.70;;;10.43;;
38717;SDS011;24468;52.128;9.278;2023-09-12T04:02:24;7.88;;;6.93;;
38717;SDS011;24468;52.128;9.278;2023-09-12T04:04:49;16.95;;;6.15;;
38717;SDS011;24468;52.128;9.278;2023-09-12T04:07:16;11.55;;;8.95;;
38717;SDS011;24468;52.128;9.278;2023-09-12T04:09:42;8.45;;;7.70;;
38717;SDS011;24468;52.128;9.278;2023-09-12T04:12:08;10.43;;;8.68;;
38717;SDS011;24468;52.128;9.278;2023-09-12T04:14:34;8.05;;;7.25;;
38717;SDS011;24468;52.128;9.278;2023-09-12T04:17:00;7.78;;;6.80;;
38717;SDS011;24468;52.128;9.278;2023-09-12T04:19:26;11.00;;;7.95;;
38717;SDS011;24468;52.128;9.278;2023-09-12T04:21:52;9.52;;;8.63;;
38717;SDS011;24468;52.128;9.278;2023-09-12T04:24:17;12.75;;;10.75;;
38717;SDS011;24468;52.128;9.278;2023-09-12T04:26:43;8.68;;;6.90;;
38717;SDS011;24468;52.128;9.278;2023-09-12T04:29:09;9.65;;;7.20;;
38717;SDS011;24468;52.128;9.278;2023-09-12T04:31:35;12.13;;;10.38;;
38717;SDS011;24468;52.128;9.278;2023-09-12T04:34:01;13.30;;;11.98;;
38717;SDS011;24468;52.128;9.278;2023-09-12T04:36:27;11.93;;;10.73;;
38717;SDS011;24468;52.128;9.278;2023-09-12T04:38:53;10.20;;;8.98;;
38717;SDS011;24468;52.128;9.278;2023-09-12T04:41:18;13.82;;;12.43;;
38717;SDS011;24468;52.128;9.278;2023-09-12T04:43:44;16.60;;;14.40;;
38717;SDS011;24468;52.128;9.278;2023-09-12T04:46:12;20.33;;;15.77;;
38717;SDS011;24468;52.128;9.278;2023-09-12T04:48:38;17.35;;;14.90;;
38717;SDS011;24468;52.128;9.278;2023-09-12T04:51:04;19.40;;;15.48;;
38717;SDS011;24468;52.128;9.278;2023-09-12T04:53:30;19.15;;;15.18;;
38717;SDS011;24468;52.128;9.278;2023-09-12T04:55:59;18.48;;;14.82;;
38717;SDS011;24468;52.128;9.278;2023-09-12T04:58:28;17.95;;;16.05;;
38717;SDS011;24468;52.128;9.278;2023-09-12T05:00:55;16.77;;;15.00;;
38717;SDS011;24468;52.128;9.278;2023-09-12T05:03:21;18.13;;;16.17;;
38717;SDS011;24468;52.128;9.278;2023-09-12T05:05:48;16.10;;;14.43;;
38717;SDS011;24468;52.128;9.278;2023-09-12T05:08:15;18.15;;;16.33;;
38717;SDS011;24468;52.128;9.278;2023-09-12T05:10:42;16.98;;;14.82;;
38717;SDS011;24468;52.128;9.278;2023-09-12T05:13:09;16.80;;;15.10;;
38717;SDS011;24468;52.128;9.278;2023-09-12T05:15:35;20.27;;;15.35;;
38717;SDS011;24468;52.128;9.278;2023-09-12T05:18:01;20.73;;;17.77;;
38717;SDS011;24468;52.128;9.278;2023-09-12T05:20:27;18.23;;;16.40;;
38717;SDS011;24468;52.128;9.278;2023-09-12T05:22:53;21.00;;;16.33;;
38717;SDS011;24468;52.128;9.278;2023-09-12T05:25:18;19.70;;;17.38;;
38717;SDS011;24468;52.128;9.278;2023-09-12T05:27:44;17.65;;;15.95;;
38717;SDS011;24468;52.128;9.278;2023-09-12T05:30:09;16.58;;;14.90;;
38717;SDS011;24468;52.128;9.278;2023-09-12T05:32:35;16.80;;;15.07;;
38717;SDS011;24468;52.128;9.278;2023-09-12T05:35:01;19.58;;;16.73;;
38717;SDS011;24468;52.128;9.278;2023-09-12T05:37:27;24.52;;;18.95;;
38717;SDS011;24468;52.128;9.278;2023-09-12T05:39:53;36.38;;;19.90;;
38717;SDS011;24468;52.128;9.278;2023-09-12T05:42:19;24.85;;;21.05;;
38717;SDS011;24468;52.128;9.278;2023-09-12T05:44:50;29.85;;;19.77;;
38717;SDS011;24468;52.128;9.278;2023-09-12T05:47:18;22.20;;;16.52;;
38717;SDS011;24468;52.128;9.278;2023-09-12T05:49:44;24.13;;;15.93;;
38717;SDS011;24468;52.128;9.278;2023-09-12T05:52:10;20.50;;;12.32;;
38717;SDS011;24468;52.128;9.278;2023-09-12T05:54:36;21.02;;;12.80;;
38717;SDS011;24468;52.128;9.278;2023-09-12T05:57:02;18.92;;;14.23;;
38717;SDS011;24468;52.128;9.278;2023-09-12T05:59:28;21.48;;;15.88;;
38717;SDS011;24468;52.128;9.278;2023-09-12T06:01:54;25.38;;;14.43;;
38717;SDS011;24468;52.128;9.278;2023-09-12T06:04:20;14.93;;;9.75;;
38717;SDS011;24468;52.128;9.278;2023-09-12T06:06:46;13.55;;;5.93;;
38717;SDS011;24468;52.128;9.278;2023-09-12T06:09:12;5.50;;;3.92;;
38717;SDS011;24468;52.128;9.278;2023-09-12T06:11:37;8.07;;;4.07;;
38717;SDS011;24468;52.128;9.278;2023-09-12T06:14:03;9.43;;;4.50;;
38717;SDS011;24468;52.128;9.278;2023-09-12T06:16:28;7.90;;;4.95;;
38717;SDS011;24468;52.128;9.278;2023-09-12T06:18:54;8.30;;;4.93;;
38717;SDS011;24468;52.128;9.278;2023-09-12T06:21:20;11.48;;;5.45;;
38717;SDS011;24468;52.128;9.278;2023-09-12T06:24:08;7.90;;;4.97;;
38717;SDS011;24468;52.128;9.278;2023-09-12T06:26:36;6.50;;;5.20;;
38717;SDS011;24468;52.128;9.278;2023-09-12T06:29:02;9.75;;;5.65;;
38717;SDS011;24468;52.128;9.278;2023-09-12T06:31:28;6.55;;;4.82;;
38717;SDS011;24468;52.128;9.278;2023-09-12T06:33:54;6.38;;;5.13;;
38717;SDS011;24468;52.128;9.278;2023-09-12T06:36:20;11.45;;;6.75;;
38717;SDS011;24468;52.128;9.278;2023-09-12T06:38:45;8.13;;;5.85;;
38717;SDS011;24468;52.128;9.278;2023-09-12T06:41:11;15.75;;;7.07;;
38717;SDS011;24468;52.128;9.278;2023-09-12T06:43:36;10.10;;;8.10;;
38717;SDS011;24468;52.128;9.278;2023-09-12T06:46:02;12.35;;;9.00;;
38717;SDS011;24468;52.128;9.278;2023-09-12T06:48:27;14.52;;;9.25;;
38717;SDS011;24468;52.128;9.278;2023-09-12T06:50:56;15.45;;;9.80;;
38717;SDS011;24468;52.128;9.278;2023-09-12T06:53:21;14.25;;;9.65;;
38717;SDS011;24468;52.128;9.278;2023-09-12T06:55:47;9.45;;;7.95;;
38717;SDS011;24468;52.128;9.278;2023-09-12T06:58:13;10.57;;;9.18;;
38717;SDS011;24468;52.128;9.278;2023-09-12T07:00:38;10.55;;;9.55;;
38717;SDS011;24468;52.128;9.278;2023-09-12T07:03:04;11.77;;;7.72;;
38717;SDS011;24468;52.128;9.278;2023-09-12T07:05:29;9.82;;;6.65;;
38717;SDS011;24468;52.128;9.278;2023-09-12T07:07:55;13.13;;;10.70;;
38717;SDS011;24468;52.128;9.278;2023-09-12T07:10:20;15.60;;;8.93;;
38717;SDS011;24468;52.128;9.278;2023-09-12T07:12:46;10.00;;;8.77;;
38717;SDS011;24468;52.128;9.278;2023-09-12T07:15:12;10.38;;;7.28;;
38717;SDS011;24468;52.128;9.278;2023-09-12T07:17:38;11.32;;;9.18;;
38717;SDS011;24468;52.128;9.278;2023-09-12T07:20:03;7.60;;;6.80;;
38717;SDS011;24468;52.128;9.278;2023-09-12T07:22:36;9.82;;;8.63;;
38717;SDS011;24468;52.128;9.278;2023-09-12T07:25:03;9.65;;;8.38;;
38717;SDS011;24468;52.128;9.278;2023-09-12T07:27:29;11.35;;;9.18;;
38717;SDS011;24468;52.128;9.278;2023-09-12T07:29:55;18.38;;;10.75;;
38717;SDS011;24468;52.128;9.278;2023-09-12T07:32:20;9.73;;;6.25;;
38717;SDS011;24468;52.128;9.278;2023-09-12T07:34:46;10.38;;;7.90;;
38717;SDS011;24468;52.128;9.278;2023-09-12T07:37:13;9.73;;;7.93;;
38717;SDS011;24468;52.128;9.278;2023-09-12T07:39:39;9.27;;;7.30;;
38717;SDS011;24468;52.128;9.278;2023-09-12T07:42:05;9.27;;;7.53;;
38717;SDS011;24468;52.128;9.278;2023-09-12T07:44:30;9.02;;;7.90;;
38717;SDS011;24468;52.128;9.278;2023-09-12T07:46:56;10.70;;;9.60;;
38717;SDS011;24468;52.128;9.278;2023-09-12T07:49:21;10.65;;;9.52;;
38717;SDS011;24468;52.128;9.278;2023-09-12T07:51:49;11.85;;;10.57;;
38717;SDS011;24468;52.128;9.278;2023-09-12T07:54:14;14.75;;;10.45;;
38717;SDS011;24468;52.128;9.278;2023-09-12T07:56:42;13.68;;;10.48;;
38717;SDS011;24468;52.128;9.278;2023-09-12T07:59:08;10.95;;;9.38;;
38717;SDS011;24468;52.128;9.278;2023-09-12T08:01:35;10.80;;;9.77;;
38717;SDS011;24468;52.128;9.278;2023-09-12T08:04:00;10.60;;;9.25;;
38717;SDS011;24468;52.128;9.278;2023-09-12T08:06:26;12.95;;;11.55;;
38717;SDS011;24468;52.128;9.278;2023-09-12T08:08:51;14.27;;;11.32;;
38717;SDS011;24468;52.128;9.278;2023-09-12T08:11:17;10.43;;;9.43;;
38717;SDS011;24468;52.128;9.278;2023-09-12T08:13:43;8.90;;;8.02;;
38717;SDS011;24468;52.128;9.278;2023-09-12T08:16:10;10.55;;;6.72;;
38717;SDS011;24468;52.128;9.278;2023-09-12T08:18:36;7.10;;;6.40;;
38717;SDS011;24468;52.128;9.278;2023-09-12T08:21:02;8.00;;;5.70;;
38717;SDS011;24468;52.128;9.278;2023-09-12T08:23:27;6.22;;;5.60;;
38717;SDS011;24468;52.128;9.278;2023-09-12T08:25:52;5.80;;;5.18;;
38717;SDS011;24468;52.128;9.278;2023-09-12T08:28:18;5.20;;;4.50;;
38717;SDS011;24468;52.128;9.278;2023-09-12T08:30:44;5.32;;;3.95;;
38717;SDS011;24468;52.128;9.278;2023-09-12T08:33:11;4.32;;;3.95;;
38717;SDS011;24468;52.128;9.278;2023-09-12T08:35:36;3.90;;;3.50;;
38717;SDS011;24468;52.128;9.278;2023-09-12T08:38:02;3.88;;;3.58;;
38717;SDS011;24468;52.128;9.278;2023-09-12T08:40:28;4.72;;;4.15;;
38717;SDS011;24468;52.128;9.278;2023-09-12T08:42:55;4.43;;;4.03;;
38717;SDS011;24468;52.128;9.278;2023-09-12T08:45:23;4.30;;;3.40;;
38717;SDS011;24468;52.128;9.278;2023-09-12T08:47:50;4.95;;;4.50;;
38717;SDS011;24468;52.128;9.278;2023-09-12T08:50:18;3.75;;;3.45;;
38717;SDS011;24468;52.128;9.278;2023-09-12T08:52:45;4.43;;;3.60;;
38717;SDS011;24468;52.128;9.278;2023-09-12T08:55:12;5.32;;;3.55;;
38717;SDS011;24468;52.128;9.278;2023-09-12T08:57:39;4.55;;;3.58;;
38717;SDS011;24468;52.128;9.278;2023-09-12T09:00:07;4.20;;;3.72;;
38717;SDS011;24468;52.128;9.278;2023-09-12T09:02:39;4.00;;;3.08;;
38717;SDS011;24468;52.128;9.278;2023-09-12T09:05:06;3.55;;;3.22;;
38717;SDS011;24468;52.128;9.278;2023-09-12T09:07:36;5.80;;;3.35;;
38717;SDS011;24468;52.128;9.278;2023-09-12T09:10:07;5.43;;;3.53;;
38717;SDS011;24468;52.128;9.278;2023-09-12T09:12:39;4.38;;;2.88;;
38717;SDS011;24468;52.128;9.278;2023-09-12T09:17:48;4.18;;;3.58;;
38717;SDS011;24468;52.128;9.278;2023-09-12T09:20:30;4.03;;;3.45;;
38717;SDS011;24468;52.128;9.278;2023-09-12T09:23:02;4.45;;;3.42;;
38717;SDS011;24468;52.128;9.278;2023-09-12T09:25:33;4.15;;;3.75;;
38717;SDS011;24468;52.128;9.278;2023-09-12T09:28:02;4.00;;;3.65;;
38717;SDS011;24468;52.128;9.278;2023-09-12T09:30:47;5.88;;;3.42;;
38717;SDS011;24468;52.128;9.278;2023-09-12T09:33:16;3.10;;;2.90;;
38717;SDS011;24468;52.128;9.278;2023-09-12T09:35:42;4.07;;;3.03;;
38717;SDS011;24468;52.128;9.278;2023-09-12T09:38:10;4.80;;;3.42;;
38717;SDS011;24468;52.128;9.278;2023-09-12T09:40:41;5.60;;;3.97;;
38717;SDS011;24468;52.128;9.278;2023-09-12T09:43:10;4.05;;;3.63;;
38717;SDS011;24468;52.128;9.278;2023-09-12T09:45:42;4.13;;;3.75;;
38717;SDS011;24468;52.128;9.278;2023-09-12T09:48:21;4.30;;;3.90;;
38717;SDS011;24468;52.128;9.278;2023-09-12T09:50:52;5.40;;;4.00;;
38717;SDS011;24468;52.128;9.278;2023-09-12T09:53:28;5.03;;;4.63;;
38717;SDS011;24468;52.128;9.278;2023-09-12T09:56:07;5.10;;;4.60;;
38717;SDS011;24468;52.128;9.278;2023-09-12T09:58:35;5.28;;;4.22;;
38717;SDS011;24468;52.128;9.278;2023-09-12T10:01:01;5.20;;;4.70;;
38717;SDS011;24468;52.128;9.278;2023-09-12T10:03:28;5.35;;;4.38;;
38717;SDS011;24468;52.128;9.278;2023-09-12T10:05:58;4.75;;;3.80;;
38717;SDS011;24468;52.128;9.278;2023-09-12T10:08:27;5.28;;;4.10;;
38717;SDS011;24468;52.128;9.278;2023-09-12T10:10:52;8.13;;;4.50;;
38717;SDS011;24468;52.128;9.278;2023-09-12T10:13:18;5.13;;;3.50;;
38717;SDS011;24468;52.128;9.278;2023-09-12T10:15:45;4.15;;;3.75;;
38717;SDS011;24468;52.128;9.278;2023-09-12T10:18:14;5.30;;;4.75;;
38717;SDS011;24468;52.128;9.278;2023-09-12T10:20:48;5.55;;;4.20;;
38717;SDS011;24468;52.128;9.278;2023-09-12T10:23:22;4.22;;;3.60;;
38717;SDS011;24468;52.128;9.278;2023-09-12T10:26:06;4.95;;;3.42;;
38717;SDS011;24468;52.128;9.278;2023-09-12T10:28:36;5.97;;;4.70;;
38717;SDS011;24468;52.128;9.278;2023-09-12T10:31:05;5.50;;;4.03;;
38717;SDS011;24468;52.128;9.278;2023-09-12T10:33:33;5.18;;;4.03;;
38717;SDS011;24468;52.128;9.278;2023-09-12T10:36:00;5.25;;;4.38;;
38717;SDS011;24468;52.128;9.278;2023-09-12T10:38:30;6.28;;;4.53;;
38717;SDS011;24468;52.128;9.278;2023-09-12T10:41:01;6.25;;;3.92;;
38717;SDS011;24468;52.128;9.278;2023-09-12T10:43:28;5.20;;;4.30;;
38717;SDS011;24468;52.128;9.278;2023-09-12T10:45:58;3.33;;;3.10;;
38717;SDS011;24468;52.128;9.278;2023-09-12T10:48:28;5.47;;;3.70;;
38717;SDS011;24468;52.128;9.278;2023-09-12T10:50:57;4.55;;;3.03;;
38717;SDS011;24468;52.128;9.278;2023-09-12T10:53:26;5.05;;;3.55;;
38717;SDS011;24468;52.128;9.278;2023-09-12T10:55:58;5.30;;;4.00;;
38717;SDS011;24468;52.128;9.278;2023-09-12T10:58:26;3.72;;;3.35;;
38717;SDS011;24468;52.128;9.278;2023-09-12T11:03:50;4.80;;;3.95;;
38717;SDS011;24468;52.128;9.278;2023-09-12T11:06:19;3.90;;;3.50;;
38717;SDS011;24468;52.128;9.278;2023-09-12T11:09:15;7.20;;;4.72;;
38717;SDS011;24468;52.128;9.278;2023-09-12T11:11:39;4.63;;;3.65;;
38717;SDS011;24468;52.128;9.278;2023-09-12T11:14:14;4.50;;;3.22;;
38717;SDS011;24468;52.128;9.278;2023-09-12T11:16:41;5.80;;;4.03;;
38717;SDS011;24468;52.128;9.278;2023-09-12T11:19:12;5.90;;;3.55;;
38717;SDS011;24468;52.128;9.278;2023-09-12T11:21:51;9.70;;;5.65;;
38717;SDS011;24468;52.128;9.278;2023-09-12T11:24:19;7.18;;;4.63;;
38717;SDS011;24468;52.128;9.278;2023-09-12T11:26:55;8.05;;;5.63;;
38717;SDS011;24468;52.128;9.278;2023-09-12T11:29:26;7.47;;;5.38;;
38717;SDS011;24468;52.128;9.278;2023-09-12T11:32:02;7.80;;;5.22;;
38717;SDS011;24468;52.128;9.278;2023-09-12T11:34:29;4.72;;;3.70;;
38717;SDS011;24468;52.128;9.278;2023-09-12T11:37:03;8.90;;;4.85;;
38717;SDS011;24468;52.128;9.278;2023-09-12T11:39:30;4.38;;;3.92;;
38717;SDS011;24468;52.128;9.278;2023-09-12T11:41:59;4.03;;;3.50;;
38717;SDS011;24468;52.128;9.278;2023-09-12T11:44:27;4.80;;;3.92;;
38717;SDS011;24468;52.128;9.278;2023-09-12T11:46:56;4.78;;;3.72;;
38717;SDS011;24468;52.128;9.278;2023-09-12T11:49:28;5.30;;;3.95;;
38717;SDS011;24468;52.128;9.278;2023-09-12T11:52:02;5.25;;;3.83;;
38717;SDS011;24468;52.128;9.278;2023-09-12T11:54:29;4.25;;;3.42;;
38717;SDS011;24468;52.128;9.278;2023-09-12T11:56:56;6.00;;;4.45;;
38717;SDS011;24468;52.128;9.278;2023-09-12T11:59:24;4.85;;;4.28;;
38717;SDS011;24468;52.128;9.278;2023-09-12T12:01:55;3.80;;;3.42;;
38717;SDS011;24468;52.128;9.278;2023-09-12T12:04:21;4.65;;;4.00;;
38717;SDS011;24468;52.128;9.278;2023-09-12T12:06:50;5.65;;;3.53;;
38717;SDS011;24468;52.128;9.278;2023-09-12T12:09:17;6.78;;;5.38;;
38717;SDS011;24468;52.128;9.278;2023-09-12T12:11:44;4.38;;;3.47;;
38717;SDS011;24468;52.128;9.278;2023-09-12T12:14:13;4.30;;;3.60;;
38717;SDS011;24468;52.128;9.278;2023-09-12T12:16:42;5.95;;;4.32;;
38717;SDS011;24468;52.128;9.278;2023-09-12T12:19:09;10.88;;;4.07;;
38717;SDS011;24468;52.128;9.278;2023-09-12T12:21:37;5.28;;;4.05;;
38717;SDS011;24468;52.128;9.278;2023-09-12T12:24:10;4.15;;;3.70;;
38717;SDS011;24468;52.128;9.278;2023-09-12T12:26:45;5.40;;;3.63;;
38717;SDS011;24468;52.128;9.278;2023-09-12T12:31:36;4.72;;;3.80;;
38717;SDS011;24468;52.128;9.278;2023-09-12T12:34:02;6.47;;;4.05;;
38717;SDS011;24468;52.128;9.278;2023-09-12T12:36:30;4.57;;;3.55;;
38717;SDS011;24468;52.128;9.278;2023-09-12T12:38:55;5.07;;;3.42;;
38717;SDS011;24468;52.128;9.278;2023-09-12T12:41:27;3.63;;;3.10;;
38717;SDS011;24468;52.128;9.278;2023-09-12T12:43:56;4.57;;;3.67;;
38717;SDS011;24468;52.128;9.278;2023-09-12T12:46:26;3.22;;;2.65;;
38717;SDS011;24468;52.128;9.278;2023-09-12T12:48:53;4.38;;;2.63;;
38717;SDS011;24468;52.128;9.278;2023-09-12T12:51:23;2.72;;;2.53;;
38717;SDS011;24468;52.128;9.278;2023-09-12T12:53:50;4.20;;;2.90;;
38717;SDS011;24468;52.128;9.278;2023-09-12T12:56:22;2.55;;;2.35;;
38717;SDS011;24468;52.128;9.278;2023-09-12T12:58:57;5.45;;;3.10;;
38717;SDS011;24468;52.128;9.278;2023-09-12T13:01:27;3.55;;;2.53;;
38717;SDS011;24468;52.128;9.278;2023-09-12T13:03:53;3.30;;;3.00;;
38717;SDS011;24468;52.128;9.278;2023-09-12T13:06:21;3.63;;;2.83;;
38717;SDS011;24468;52.128;9.278;2023-09-12T13:08:47;2.58;;;2.28;;
38717;SDS011;24468;52.128;9.278;2023-09-12T13:11:15;3.10;;;2.55;;
38717;SDS011;24468;52.128;9.278;2023-09-12T13:13:41;5.05;;;2.90;;
38717;SDS011;24468;52.128;9.278;2023-09-12T13:16:12;3.33;;;3.03;;
38717;SDS011;24468;52.128;9.278;2023-09-12T13:18:39;5.10;;;3.55;;
38717;SDS011;24468;52.128;9.278;2023-09-12T13:21:05;2.67;;;2.30;;
38717;SDS011;24468;52.128;9.278;2023-09-12T13:23:33;3.78;;;2.55;;
38717;SDS011;24468;52.128;9.278;2023-09-12T13:26:01;6.22;;;3.40;;
38717;SDS011;24468;52.128;9.278;2023-09-12T13:28:27;3.55;;;2.90;;
38717;SDS011;24468;52.128;9.278;2023-09-12T13:30:53;3.40;;;2.80;;
38717;SDS011;24468;52.128;9.278;2023-09-12T13:33:19;4.45;;;2.92;;
38717;SDS011;24468;52.128;9.278;2023-09-12T13:35:46;4.45;;;2.60;;
38717;SDS011;24468;52.128;9.278;2023-09-12T13:38:13;3.92;;;2.92;;
38717;SDS011;24468;52.128;9.278;2023-09-12T13:40:41;3.10;;;2.80;;
38717;SDS011;24468;52.128;9.278;2023-09-12T13:43:09;2.92;;;2.60;;
38717;SDS011;24468;52.128;9.278;2023-09-12T13:45:35;4.13;;;2.85;;
38717;SDS011;24468;52.128;9.278;2023-09-12T13:48:04;2.97;;;2.65;;
38717;SDS011;24468;52.128;9.278;2023-09-12T13:50:31;3.55;;;2.53;;
38717;SDS011;24468;52.128;9.278;2023-09-12T13:52:58;2.83;;;2.53;;
38717;SDS011;24468;52.128;9.278;2023-09-12T13:55:25;2.80;;;2.22;;
38717;SDS011;24468;52.128;9.278;2023-09-12T13:57:51;3.53;;;3.22;;
38717;SDS011;24468;52.128;9.278;2023-09-12T14:00:17;3.17;;;2.75;;
38717;SDS011;24468;52.128;9.278;2023-09-12T14:02:42;3.00;;;2.53;;
38717;SDS011;24468;52.128;9.278;2023-09-12T14:05:09;2.90;;;2.65;;
38717;SDS011;24468;52.128;9.278;2023-09-12T14:07:37;4.22;;;3.10;;
38717;SDS011;24468;52.128;9.278;2023-09-12T14:10:04;5.55;;;3.08;;
38717;SDS011;24468;52.128;9.278;2023-09-12T14:12:33;3.25;;;2.65;;
38717;SDS011;24468;52.128;9.278;2023-09-12T14:14:58;2.85;;;2.65;;
38717;SDS011;24468;52.128;9.278;2023-09-12T14:17:25;3.15;;;2.30;;
38717;SDS011;24468;52.128;9.278;2023-09-12T14:19:50;4.47;;;2.22;;
38717;SDS011;24468;52.128;9.278;2023-09-12T14:22:16;2.60;;;2.35;;
38717;SDS011;24468;52.128;9.278;2023-09-12T14:24:41;2.45;;;2.15;;
38717;SDS011;24468;52.128;9.278;2023-09-12T14:27:08;5.60;;;3.80;;
38717;SDS011;24468;52.128;9.278;2023-09-12T14:29:33;2.85;;;2.65;;
38717;SDS011;24468;52.128;9.278;2023-09-12T14:31:59;3.83;;;3.40;;
38717;SDS011;24468;52.128;9.278;2023-09-12T14:34:24;4.25;;;2.90;;
38717;SDS011;24468;52.128;9.278;2023-09-12T14:36:56;2.67;;;2.40;;
38717;SDS011;24468;52.128;9.278;2023-09-12T14:39:22;4.45;;;2.75;;
38717;SDS011;24468;52.128;9.278;2023-09-12T14:41:48;3.90;;;2.92;;
38717;SDS011;24468;52.128;9.278;2023-09-12T14:44:20;5.60;;;2.35;;
38717;SDS011;24468;52.128;9.278;2023-09-12T14:46:47;3.92;;;2.63;;
38717;SDS011;24468;52.128;9.278;2023-09-12T14:49:13;9.85;;;3.55;;
38717;SDS011;24468;52.128;9.278;2023-09-12T14:51:38;2.42;;;2.22;;
38717;SDS011;24468;52.128;9.278;2023-09-12T14:54:04;3.58;;;2.78;;
38717;SDS011;24468;52.128;9.278;2023-09-12T14:56:31;3.40;;;2.70;;
38717;SDS011;24468;52.128;9.278;2023-09-12T14:58:58;6.93;;;2.63;;
38717;SDS011;24468;52.128;9.278;2023-09-12T15:01:25;2.72;;;2.53;;